Belding, Michigan
Current Conditions -  °F | °C
As of 9:13 PM on Thursday 18 Dec 2014 (Local Time) from KY70 Reporting Station
Overcast Overcast  
Wind Chill: 24°   Ceiling: 1500
Heat Index: 30°   Visibility: 10mi
Dew Point: 25°   Wind: 6mph
Humidity: 83%   Direction: 10°N
Pressure: 30.18"   Gusts: NA
Location:  43.1°N, 85.23°W
Report Text: KY70 190213Z AUTO 01005KT 10SM OVC015 M01/M04 A3018 RMK AO2 T10121038
Loading
Personal Weather Stations






























Interactive Weather Map New forecast layout! Learn more

10-Day Weather Forecast

Advertisements
Track Severe Weather on mobile